createdAt,value
2023-05-09T00:00:11.236Z,9.75
2023-05-09T00:02:40.041Z,9.69
2023-05-09T00:05:10.489Z,9.79
2023-05-09T00:07:38.910Z,9.77
2023-05-09T00:10:08.303Z,9.74
2023-05-09T00:12:36.964Z,9.75
2023-05-09T00:15:08.394Z,9.78
2023-05-09T00:17:38.795Z,9.71
2023-05-09T00:20:12.619Z,9.71
2023-05-09T00:22:42.478Z,9.74
2023-05-09T00:25:12.778Z,9.80
2023-05-09T00:27:41.288Z,9.79
2023-05-09T00:30:10.443Z,9.79
2023-05-09T00:32:40.380Z,9.78
2023-05-09T00:35:10.236Z,9.80
2023-05-09T00:37:38.822Z,9.73
2023-05-09T00:40:09.985Z,9.63
2023-05-09T00:42:39.203Z,9.64
2023-05-09T00:45:08.856Z,9.68
2023-05-09T00:47:37.489Z,9.76
2023-05-09T00:50:07.106Z,9.73
2023-05-09T00:52:35.600Z,9.70
2023-05-09T00:55:04.615Z,9.72
2023-05-09T00:57:34.540Z,9.67
2023-05-09T01:00:04.521Z,9.57
2023-05-09T01:02:33.271Z,9.68
2023-05-09T01:05:02.092Z,9.67
2023-05-09T01:07:36.962Z,9.62
2023-05-09T01:10:13.078Z,9.65
2023-05-09T01:12:49.076Z,9.67
2023-05-09T01:15:26.077Z,9.62
2023-05-09T01:17:59.928Z,9.55
2023-05-09T01:20:34.869Z,9.52
2023-05-09T01:23:28.141Z,9.55
2023-05-09T01:26:03.797Z,9.51
2023-05-09T01:28:54.737Z,9.38
2023-05-09T01:31:26.019Z,9.34
2023-05-09T01:33:59.734Z,9.41
2023-05-09T01:36:32.942Z,9.40
2023-05-09T01:39:04.414Z,9.45
2023-05-09T01:41:37.861Z,9.49
2023-05-09T01:44:09.644Z,9.40
2023-05-09T01:46:40.650Z,9.33
2023-05-09T01:49:10.450Z,9.39
2023-05-09T01:51:42.263Z,9.37
2023-05-09T01:54:13.305Z,9.26
2023-05-09T01:56:44.210Z,9.19
2023-05-09T01:59:16.348Z,9.15
2023-05-09T02:01:48.172Z,9.16
2023-05-09T02:04:19.547Z,9.21
2023-05-09T02:06:51.431Z,9.12
2023-05-09T02:09:21.239Z,9.08
2023-05-09T02:11:49.586Z,9.04
2023-05-09T02:14:17.939Z,8.96
2023-05-09T02:16:47.775Z,8.97
2023-05-09T02:19:17.011Z,8.97
2023-05-09T02:21:45.814Z,8.99
2023-05-09T02:24:14.346Z,8.99
2023-05-09T02:26:43.770Z,9.00
2023-05-09T02:29:13.284Z,9.06
2023-05-09T02:31:43.791Z,9.02
2023-05-09T02:34:14.665Z,9.10
2023-05-09T02:36:43.598Z,9.07
2023-05-09T02:39:12.283Z,9.05
2023-05-09T02:41:40.636Z,8.99
2023-05-09T02:44:09.001Z,9.00
2023-05-09T02:46:37.373Z,8.97
2023-05-09T02:49:05.721Z,8.98
2023-05-09T02:51:35.507Z,8.94
2023-05-09T02:54:03.825Z,8.95
2023-05-09T02:56:32.406Z,8.96
2023-05-09T02:59:00.817Z,8.95
2023-05-09T03:01:29.154Z,8.94
2023-05-09T03:03:57.694Z,8.97
2023-05-09T03:06:26.102Z,8.96
2023-05-09T03:08:55.849Z,8.95
2023-05-09T03:11:24.527Z,8.93
2023-05-09T03:13:52.925Z,9.03
2023-05-09T03:16:21.775Z,9.06
2023-05-09T03:18:50.135Z,9.07
2023-05-09T03:21:18.459Z,9.15
2023-05-09T03:23:48.245Z,9.01
2023-05-09T03:26:18.093Z,9.03
2023-05-09T03:28:49.005Z,9.05
2023-05-09T03:31:17.751Z,9.15
2023-05-09T03:33:46.107Z,9.20
2023-05-09T03:36:14.453Z,9.27
2023-05-09T03:38:42.819Z,9.21
2023-05-09T03:41:11.520Z,9.29
2023-05-09T03:43:41.229Z,9.35
2023-05-09T03:46:09.626Z,9.40
2023-05-09T03:48:37.954Z,9.38
2023-05-09T03:51:06.446Z,9.35
2023-05-09T03:53:34.865Z,9.34
2023-05-09T03:56:03.168Z,9.40
2023-05-09T03:58:31.572Z,9.48
2023-05-09T04:01:01.401Z,9.51
2023-05-09T04:03:30.015Z,9.64
2023-05-09T04:05:58.527Z,9.74
2023-05-09T04:08:28.342Z,9.67
2023-05-09T04:10:56.717Z,9.55
2023-05-09T04:13:25.117Z,9.72
2023-05-09T04:15:53.600Z,9.88
2023-05-09T04:18:23.383Z,9.98
2023-05-09T04:20:51.661Z,10.04
2023-05-09T04:23:20.046Z,10.16
2023-05-09T04:25:51.387Z,10.21
2023-05-09T04:28:19.745Z,10.50
2023-05-09T04:30:48.044Z,10.44
2023-05-09T04:33:17.141Z,10.24
2023-05-09T04:35:46.882Z,10.29
2023-05-09T04:38:15.247Z,10.27
2023-05-09T04:40:43.600Z,10.27
2023-05-09T04:43:11.982Z,10.22
2023-05-09T04:45:40.402Z,10.28
2023-05-09T04:48:09.076Z,10.63
2023-05-09T04:50:37.767Z,10.85
2023-05-09T04:53:08.532Z,11.24
2023-05-09T04:55:36.980Z,11.32
2023-05-09T04:58:05.315Z,11.60
2023-05-09T05:00:33.740Z,11.46
2023-05-09T05:03:02.227Z,11.20
2023-05-09T05:05:30.714Z,11.10
2023-05-09T05:07:59.809Z,11.12
2023-05-09T05:10:30.369Z,11.21
2023-05-09T05:12:58.844Z,11.11
2023-05-09T05:15:27.957Z,11.24
2023-05-09T05:17:56.326Z,11.33
2023-05-09T05:20:25.009Z,11.69
2023-05-09T05:22:54.646Z,11.39
2023-05-09T05:25:23.116Z,11.40
2023-05-09T05:27:52.953Z,11.47
2023-05-09T05:30:22.179Z,11.53
2023-05-09T05:32:50.563Z,11.83
2023-05-09T05:35:19.543Z,12.52
2023-05-09T05:37:49.115Z,14.40
2023-05-09T05:40:17.648Z,16.00
2023-05-09T05:42:46.755Z,16.73
2023-05-09T05:45:16.716Z,16.42
2023-05-09T05:47:45.795Z,15.63
2023-05-09T05:50:14.633Z,14.90
2023-05-09T05:52:43.386Z,13.93
2023-05-09T05:55:11.870Z,14.18
2023-05-09T05:57:40.367Z,14.62
2023-05-09T06:00:11.310Z,15.27
2023-05-09T06:02:44.858Z,16.06
2023-05-09T06:05:13.755Z,14.64
2023-05-09T06:07:44.240Z,13.73
2023-05-09T06:10:12.800Z,13.49
2023-05-09T06:12:41.475Z,12.76
2023-05-09T06:15:10.447Z,12.75
2023-05-09T06:17:38.938Z,13.15
2023-05-09T06:20:09.700Z,12.83
2023-05-09T06:22:38.131Z,13.09
2023-05-09T06:25:10.173Z,12.81
2023-05-09T06:27:39.097Z,12.82
2023-05-09T06:30:24.011Z,12.81
2023-05-09T06:32:54.454Z,12.84
2023-05-09T06:35:24.351Z,12.56
2023-05-09T06:37:52.706Z,12.76
2023-05-09T06:40:21.423Z,12.95
2023-05-09T06:42:49.762Z,12.83
2023-05-09T06:45:18.523Z,12.99
2023-05-09T06:47:47.275Z,12.81
2023-05-09T06:50:15.827Z,12.87
2023-05-09T06:52:45.649Z,12.80
2023-05-09T06:55:14.165Z,12.74
2023-05-09T06:57:42.714Z,12.53
2023-05-09T07:00:12.231Z,12.09
2023-05-09T07:02:42.551Z,12.35
2023-05-09T07:05:11.592Z,12.21
2023-05-09T07:07:40.823Z,12.51
2023-05-09T07:10:13.224Z,12.21
2023-05-09T07:12:42.145Z,12.17
2023-05-09T07:15:11.727Z,12.35
2023-05-09T07:17:40.156Z,12.49
2023-05-09T07:20:09.509Z,12.72
2023-05-09T07:22:38.128Z,12.26
2023-05-09T07:25:09.299Z,12.28
2023-05-09T07:27:39.465Z,12.01
2023-05-09T07:30:09.427Z,11.98
2023-05-09T07:32:37.933Z,11.85
2023-05-09T07:35:07.291Z,11.92
2023-05-09T07:37:36.159Z,12.17
2023-05-09T07:40:06.273Z,12.36
2023-05-09T07:42:34.668Z,12.61
2023-05-09T07:45:06.302Z,12.66
2023-05-09T07:47:34.852Z,12.60
2023-05-09T07:50:03.321Z,12.99
2023-05-09T07:52:31.707Z,12.61
2023-05-09T07:55:00.328Z,12.69
2023-05-09T07:57:28.727Z,12.30
2023-05-09T07:59:57.267Z,12.28
2023-05-09T08:02:27.177Z,12.40
2023-05-09T08:04:55.646Z,12.27
2023-05-09T08:07:24.012Z,12.47
2023-05-09T08:09:52.334Z,12.51
2023-05-09T08:12:20.906Z,13.17
2023-05-09T08:14:49.369Z,13.44
2023-05-09T08:17:17.771Z,13.46
2023-05-09T08:19:47.595Z,13.61
2023-05-09T08:22:19.689Z,13.42
2023-05-09T08:24:48.465Z,13.46
2023-05-09T08:27:16.855Z,13.49
2023-05-09T08:29:45.603Z,13.72
2023-05-09T08:32:14.340Z,13.68
2023-05-09T08:34:42.832Z,13.11
2023-05-09T08:37:15.076Z,12.94
2023-05-09T08:39:44.185Z,13.34
2023-05-09T08:42:16.072Z,13.73
2023-05-09T08:44:44.517Z,13.52
2023-05-09T08:47:13.385Z,13.95
2023-05-09T08:49:42.476Z,13.83
2023-05-09T08:52:12.720Z,13.13
2023-05-09T08:54:41.792Z,13.27
2023-05-09T08:57:10.524Z,13.45
2023-05-09T08:59:41.686Z,13.05
2023-05-09T09:02:13.883Z,13.59
2023-05-09T09:04:42.561Z,14.09
2023-05-09T09:07:13.670Z,14.01
2023-05-09T09:09:47.351Z,14.63
2023-05-09T09:12:17.726Z,13.82
2023-05-09T09:14:50.767Z,13.44
2023-05-09T09:17:22.161Z,12.85
2023-05-09T09:19:56.088Z,13.29
2023-05-09T09:22:28.415Z,13.04
2023-05-09T09:24:56.985Z,12.75
2023-05-09T09:27:25.379Z,12.55
2023-05-09T09:29:53.763Z,12.62
2023-05-09T09:32:23.175Z,12.64
2023-05-09T09:34:51.840Z,12.61
2023-05-09T09:37:27.913Z,12.85
2023-05-09T09:39:56.721Z,13.00
2023-05-09T09:42:25.101Z,12.69
2023-05-09T09:44:58.137Z,12.82
2023-05-09T09:47:33.309Z,12.86
2023-05-09T09:50:12.204Z,12.30
2023-05-09T09:52:50.545Z,12.31
2023-05-09T09:55:19.266Z,12.42
2023-05-09T09:57:48.576Z,12.54
2023-05-09T10:00:18.740Z,12.58
2023-05-09T10:02:51.808Z,12.50
2023-05-09T10:05:21.769Z,12.37
2023-05-09T10:07:56.938Z,12.46
2023-05-09T10:10:27.958Z,12.99
2023-05-09T10:12:59.122Z,13.07
2023-05-09T10:15:30.126Z,12.58
2023-05-09T10:18:04.618Z,12.59
2023-05-09T10:20:33.752Z,12.89
2023-05-09T10:23:05.341Z,12.77
2023-05-09T10:25:41.102Z,12.59
2023-05-09T10:28:13.323Z,12.56
2023-05-09T10:30:52.616Z,12.37
2023-05-09T10:33:25.704Z,12.19
2023-05-09T10:35:56.439Z,12.25
2023-05-09T10:38:26.714Z,12.31
2023-05-09T10:40:55.721Z,12.10
2023-05-09T10:43:25.425Z,12.01
2023-05-09T10:45:54.665Z,12.11
2023-05-09T10:48:25.205Z,12.31
2023-05-09T10:50:54.239Z,12.73
2023-05-09T10:53:24.492Z,12.55
2023-05-09T10:55:56.695Z,12.64
2023-05-09T10:58:29.209Z,12.70
2023-05-09T11:00:59.354Z,12.36
2023-05-09T11:03:29.040Z,12.39
2023-05-09T11:05:58.755Z,12.76
2023-05-09T11:08:28.467Z,13.07
2023-05-09T11:11:00.729Z,13.39
2023-05-09T11:13:33.584Z,13.20
2023-05-09T11:16:12.525Z,12.73
2023-05-09T11:18:53.306Z,12.83
2023-05-09T11:21:22.436Z,12.82
2023-05-09T11:23:53.823Z,13.01
2023-05-09T11:26:31.367Z,13.02
2023-05-09T11:29:02.849Z,12.86
2023-05-09T11:31:32.077Z,12.16
2023-05-09T11:34:04.987Z,12.17
2023-05-09T11:36:33.989Z,12.38
2023-05-09T11:39:07.967Z,12.61
2023-05-09T11:41:45.437Z,12.52
2023-05-09T11:44:18.574Z,12.25
2023-05-09T11:46:47.664Z,12.21
2023-05-09T11:49:17.172Z,12.02
2023-05-09T11:51:45.570Z,12.01
2023-05-09T11:54:15.114Z,11.82
2023-05-09T11:56:45.072Z,11.49
2023-05-09T11:59:15.926Z,11.61
2023-05-09T12:01:44.309Z,11.98
2023-05-09T12:04:13.169Z,12.19
2023-05-09T12:06:50.597Z,12.31
2023-05-09T12:09:20.090Z,12.01
2023-05-09T12:11:51.417Z,11.83
2023-05-09T12:14:30.770Z,12.04
2023-05-09T12:16:59.521Z,11.88
2023-05-09T12:19:28.620Z,11.63
2023-05-09T12:21:59.262Z,11.63
2023-05-09T12:24:28.101Z,11.52
2023-05-09T12:26:57.078Z,11.53
2023-05-09T12:29:26.440Z,11.40
2023-05-09T12:31:55.455Z,11.43
2023-05-09T12:34:23.949Z,11.58
2023-05-09T12:36:52.314Z,11.67
2023-05-09T12:39:23.181Z,11.32
2023-05-09T12:42:01.669Z,11.36
2023-05-09T12:44:30.533Z,11.51
2023-05-09T12:47:00.400Z,11.43
2023-05-09T12:49:29.448Z,11.30
2023-05-09T12:52:01.592Z,11.09
2023-05-09T12:54:33.808Z,11.13
2023-05-09T12:57:04.458Z,11.08
2023-05-09T12:59:33.437Z,11.15
2023-05-09T13:02:02.449Z,11.07
2023-05-09T13:04:30.783Z,11.25
2023-05-09T13:07:00.365Z,11.50
2023-05-09T13:09:28.798Z,11.79
2023-05-09T13:11:58.676Z,11.97
2023-05-09T13:14:28.605Z,11.86
2023-05-09T13:16:57.214Z,11.77
2023-05-09T13:19:25.793Z,11.79
2023-05-09T13:21:55.174Z,11.75
2023-05-09T13:24:23.447Z,11.66
2023-05-09T13:26:51.709Z,11.55
2023-05-09T13:29:21.406Z,11.54
2023-05-09T13:31:50.842Z,11.43
2023-05-09T13:34:19.208Z,11.45
2023-05-09T13:36:47.564Z,11.54
2023-05-09T13:39:16.681Z,11.64
2023-05-09T13:41:45.517Z,11.31
2023-05-09T13:44:13.755Z,11.22
2023-05-09T13:46:43.787Z,11.27
2023-05-09T13:49:12.488Z,11.20
2023-05-09T13:51:41.157Z,11.26
2023-05-09T13:54:12.770Z,11.36
2023-05-09T13:56:41.784Z,11.53
2023-05-09T13:59:10.488Z,11.58
2023-05-09T14:01:38.946Z,11.63
2023-05-09T14:04:09.432Z,11.73
2023-05-09T14:06:37.822Z,12.05
2023-05-09T14:09:07.368Z,11.96
2023-05-09T14:11:35.644Z,11.94
2023-05-09T14:14:04.075Z,11.97
2023-05-09T14:16:32.565Z,11.83
2023-05-09T14:19:00.904Z,11.89
2023-05-09T14:21:30.619Z,11.93
2023-05-09T14:23:58.900Z,11.92
2023-05-09T14:26:27.927Z,11.95
2023-05-09T14:28:56.429Z,11.78
2023-05-09T14:31:24.875Z,11.87
2023-05-09T14:33:53.163Z,11.82
2023-05-09T14:36:21.551Z,11.67
2023-05-09T14:38:51.305Z,11.66
2023-05-09T14:41:21.404Z,11.34
2023-05-09T14:43:49.876Z,11.56
2023-05-09T14:46:18.324Z,11.40
2023-05-09T14:48:46.599Z,11.52
2023-05-09T14:51:14.820Z,11.34
2023-05-09T14:53:43.137Z,11.29
2023-05-09T14:56:13.250Z,11.34
2023-05-09T14:58:41.534Z,11.41
2023-05-09T15:01:09.824Z,11.37
2023-05-09T15:03:39.438Z,11.21
2023-05-09T15:06:08.019Z,11.22
2023-05-09T15:08:36.678Z,11.26
2023-05-09T15:11:04.927Z,11.28
2023-05-09T15:13:34.716Z,11.40
2023-05-09T15:16:03.261Z,11.40
2023-05-09T15:18:31.666Z,11.39
2023-05-09T15:20:59.948Z,11.46
2023-05-09T15:23:28.402Z,11.45
2023-05-09T15:25:56.895Z,11.40
2023-05-09T15:28:25.179Z,11.37
2023-05-09T15:30:55.065Z,11.18
2023-05-09T15:33:23.401Z,11.28
2023-05-09T15:35:51.729Z,11.21
2023-05-09T15:38:20.183Z,11.15
2023-05-09T15:40:48.644Z,11.27
2023-05-09T15:43:17.273Z,11.22
2023-05-09T15:45:46.906Z,11.10
2023-05-09T15:48:17.419Z,10.98
2023-05-09T15:50:46.587Z,10.90
2023-05-09T15:53:15.703Z,10.85
2023-05-09T15:55:44.769Z,10.77
2023-05-09T15:58:14.224Z,10.77
2023-05-09T16:00:42.528Z,10.75
2023-05-09T16:03:10.923Z,10.66
2023-05-09T16:05:41.477Z,10.69
2023-05-09T16:08:09.798Z,10.65
2023-05-09T16:10:38.148Z,10.66
2023-05-09T16:13:06.691Z,10.57
2023-05-09T16:15:35.263Z,10.52
2023-05-09T16:18:03.872Z,10.55
2023-05-09T16:20:32.287Z,10.55
2023-05-09T16:23:01.980Z,10.53
2023-05-09T16:25:30.393Z,10.52
2023-05-09T16:27:58.630Z,10.45
2023-05-09T16:30:26.985Z,10.43
2023-05-09T16:32:55.314Z,10.37
2023-05-09T16:35:23.725Z,10.31
2023-05-09T16:37:52.153Z,10.36
2023-05-09T16:40:22.208Z,10.35
2023-05-09T16:42:50.658Z,10.25
2023-05-09T16:45:19.115Z,10.21
2023-05-09T16:47:47.479Z,10.22
2023-05-09T16:50:15.966Z,10.13
2023-05-09T16:52:44.346Z,10.04
2023-05-09T16:55:12.648Z,10.01
2023-05-09T16:57:42.509Z,9.97
2023-05-09T17:00:11.496Z,9.94
2023-05-09T17:02:39.894Z,9.91
2023-05-09T17:05:09.092Z,9.90
2023-05-09T17:07:37.420Z,9.85
2023-05-09T17:10:06.379Z,9.80
2023-05-09T17:12:35.256Z,9.79
2023-05-09T17:15:05.566Z,9.76
2023-05-09T17:17:34.051Z,9.69
2023-05-09T17:20:02.688Z,9.64
2023-05-09T17:22:31.022Z,9.62
2023-05-09T17:24:59.373Z,9.58
2023-05-09T17:27:28.027Z,9.57
2023-05-09T17:29:56.614Z,9.58
2023-05-09T17:32:26.358Z,9.60
2023-05-09T17:34:54.748Z,9.50
2023-05-09T17:37:23.044Z,9.52
2023-05-09T17:39:51.839Z,9.49
2023-05-09T17:42:20.121Z,9.38
2023-05-09T17:44:48.461Z,9.31
2023-05-09T17:47:16.797Z,9.25
2023-05-09T17:49:46.702Z,9.27
2023-05-09T17:52:15.140Z,9.17
2023-05-09T17:54:43.942Z,9.17
2023-05-09T17:57:12.222Z,9.15
2023-05-09T17:59:41.563Z,9.16
2023-05-09T18:02:10.060Z,9.15
2023-05-09T18:04:38.432Z,9.13
2023-05-09T18:07:09.962Z,9.03
2023-05-09T18:09:38.271Z,9.15
2023-05-09T18:12:06.798Z,9.11
2023-05-09T18:14:35.822Z,9.00
2023-05-09T18:17:04.106Z,8.98
2023-05-09T18:19:33.287Z,8.98
2023-05-09T18:22:01.642Z,8.90
2023-05-09T18:24:31.492Z,8.80
2023-05-09T18:26:59.777Z,8.73
2023-05-09T18:29:28.061Z,8.78
2023-05-09T18:31:56.414Z,8.83
2023-05-09T18:34:24.885Z,8.80
2023-05-09T18:36:53.502Z,8.78
2023-05-09T18:39:21.870Z,8.89
2023-05-09T18:41:51.581Z,8.82
2023-05-09T18:44:19.921Z,8.87
2023-05-09T18:46:48.440Z,8.77
2023-05-09T18:49:17.263Z,8.68
2023-05-09T18:51:45.581Z,8.72
2023-05-09T18:54:14.250Z,8.69
2023-05-09T18:56:43.167Z,8.73
2023-05-09T18:59:16.380Z,8.70
2023-05-09T19:01:45.075Z,8.73
2023-05-09T19:04:14.211Z,8.85
2023-05-09T19:06:43.205Z,8.85
2023-05-09T19:09:11.648Z,8.84
2023-05-09T19:11:39.988Z,8.85
2023-05-09T19:14:08.523Z,8.70
2023-05-09T19:16:38.303Z,8.74
2023-05-09T19:19:06.612Z,8.58
2023-05-09T19:21:35.790Z,8.48
2023-05-09T19:24:06.404Z,8.46
2023-05-09T19:26:34.677Z,8.47
2023-05-09T19:29:08.334Z,8.44
2023-05-09T19:31:38.627Z,8.39
2023-05-09T19:34:06.936Z,8.38
2023-05-09T19:36:35.268Z,8.37
2023-05-09T19:39:05.252Z,8.32
2023-05-09T19:41:33.728Z,8.26
2023-05-09T19:44:02.123Z,8.18
2023-05-09T19:46:30.469Z,8.14
2023-05-09T19:49:00.297Z,8.06
2023-05-09T19:51:28.759Z,7.98
2023-05-09T19:53:57.039Z,8.07
2023-05-09T19:56:25.926Z,8.03
2023-05-09T19:58:54.984Z,8.06
2023-05-09T20:01:23.482Z,7.95
2023-05-09T20:03:52.440Z,7.93
2023-05-09T20:06:22.374Z,7.90
2023-05-09T20:08:52.189Z,7.88
2023-05-09T20:11:21.745Z,7.91
2023-05-09T20:13:50.038Z,7.87
2023-05-09T20:16:20.038Z,7.89
2023-05-09T20:18:50.709Z,7.88
2023-05-09T20:21:21.843Z,7.88
2023-05-09T20:23:50.124Z,7.84
2023-05-09T20:26:18.479Z,7.79
2023-05-09T20:28:46.748Z,7.79
2023-05-09T20:31:15.032Z,7.86
2023-05-09T20:33:43.373Z,7.83
2023-05-09T20:36:11.672Z,7.87
2023-05-09T20:38:41.528Z,7.90
2023-05-09T20:41:09.900Z,7.84
2023-05-09T20:43:38.513Z,7.82
2023-05-09T20:46:07.009Z,7.80
2023-05-09T20:48:35.333Z,7.78
2023-05-09T20:51:03.633Z,7.72
2023-05-09T20:53:32.626Z,7.84
2023-05-09T20:56:03.113Z,7.80
2023-05-09T20:58:34.487Z,7.79
2023-05-09T21:01:02.904Z,7.71
2023-05-09T21:03:31.322Z,7.68
2023-05-09T21:06:00.102Z,7.66
2023-05-09T21:08:28.349Z,7.60
2023-05-09T21:10:56.603Z,7.60
2023-05-09T21:13:26.773Z,7.55
2023-05-09T21:15:55.228Z,7.59
2023-05-09T21:18:23.463Z,7.53
2023-05-09T21:20:52.039Z,7.53
2023-05-09T21:23:20.452Z,7.55
2023-05-09T21:25:48.795Z,7.50
2023-05-09T21:28:17.536Z,7.57
2023-05-09T21:30:52.198Z,7.60
2023-05-09T21:33:20.551Z,7.51
2023-05-09T21:35:49.079Z,7.56
2023-05-09T21:38:17.346Z,7.51
2023-05-09T21:40:45.831Z,7.58
2023-05-09T21:43:14.136Z,7.59
2023-05-09T21:45:42.537Z,7.50
2023-05-09T21:48:12.488Z,7.44
2023-05-09T21:50:40.835Z,7.45
2023-05-09T21:53:09.226Z,7.45
2023-05-09T21:55:37.484Z,7.35
2023-05-09T21:58:06.250Z,7.39
2023-05-09T22:00:34.626Z,7.43
2023-05-09T22:03:03.047Z,7.35
2023-05-09T22:05:32.851Z,7.33
2023-05-09T22:08:01.118Z,7.32
2023-05-09T22:10:29.589Z,7.32
2023-05-09T22:12:58.469Z,7.34
2023-05-09T22:15:27.797Z,7.31
2023-05-09T22:17:56.124Z,7.24
2023-05-09T22:20:24.665Z,7.24
2023-05-09T22:22:54.438Z,7.22
2023-05-09T22:25:22.934Z,7.32
2023-05-09T22:27:51.218Z,7.34
2023-05-09T22:30:19.461Z,7.34
2023-05-09T22:32:47.758Z,7.37
2023-05-09T22:35:15.999Z,7.42
2023-05-09T22:37:44.477Z,7.41
2023-05-09T22:40:14.821Z,7.44
2023-05-09T22:42:43.295Z,7.42
2023-05-09T22:45:12.509Z,7.42
2023-05-09T22:47:40.839Z,7.53
2023-05-09T22:50:10.557Z,7.53
2023-05-09T22:52:38.821Z,7.53
2023-05-09T22:55:08.195Z,7.49
2023-05-09T22:57:37.889Z,7.53
2023-05-09T23:00:07.917Z,7.48
2023-05-09T23:02:36.245Z,7.50
2023-05-09T23:05:04.745Z,7.53
2023-05-09T23:07:33.236Z,7.50
2023-05-09T23:10:01.801Z,7.55
2023-05-09T23:12:30.175Z,7.51
2023-05-09T23:15:00.063Z,7.50
2023-05-09T23:17:28.539Z,7.45
2023-05-09T23:19:56.805Z,7.48
2023-05-09T23:22:25.049Z,7.52
2023-05-09T23:24:53.313Z,7.49
2023-05-09T23:27:21.653Z,7.54
2023-05-09T23:29:50.074Z,7.50
2023-05-09T23:32:20.372Z,7.52
2023-05-09T23:34:48.640Z,7.49
2023-05-09T23:37:17.338Z,7.51
2023-05-09T23:39:45.738Z,7.48
2023-05-09T23:42:14.038Z,7.53
2023-05-09T23:44:42.720Z,7.54
2023-05-09T23:47:10.971Z,7.52
2023-05-09T23:49:40.741Z,7.53
2023-05-09T23:52:09.916Z,7.55
2023-05-09T23:54:38.753Z,7.44
2023-05-09T23:57:07.012Z,7.38
2023-05-09T23:59:35.466Z,7.41
